Quesnel, Canada
Current Conditions -  °F | °C
As of 11:00 PM on Saturday 22 Nov 2014 (Local Time) from CYQZ Reporting Station
Overcast Overcast  
Wind Chill: 34°   Ceiling: 8000
Heat Index: 34°   Visibility: 9mi
Dew Point: 28°   Wind: 3mph
Humidity: 81%   Direction: 140°SE
Pressure: 29.78"   Gusts: NA
Location:  52.98°N, 122.5°W
Report Text: CYQZ 230700Z AUTO 14003KT 120V190 9SM OVC080 01/M02 A2978 RMK SLP108
Loading
Personal Weather Stations






























Interactive Weather Map New forecast layout! Learn more

10-Day Weather Forecast

Advertisements
Track Severe Weather on mobile